createdAt,value
2023-04-16T00:00:32.367Z,7.11
2023-04-16T00:02:59.568Z,7.10
2023-04-16T00:05:27.594Z,7.04
2023-04-16T00:07:54.565Z,7.06
2023-04-16T00:10:21.582Z,7.08
2023-04-16T00:12:48.534Z,7.06
2023-04-16T00:15:15.464Z,7.07
2023-04-16T00:17:42.455Z,7.09
2023-04-16T00:20:10.601Z,7.10
2023-04-16T00:22:38.046Z,7.10
2023-04-16T00:25:05.811Z,7.06
2023-04-16T00:27:32.775Z,7.00
2023-04-16T00:29:59.813Z,6.95
2023-04-16T00:32:26.865Z,6.93
2023-04-16T00:34:54.083Z,6.88
2023-04-16T00:37:21.119Z,6.83
2023-04-16T00:39:48.207Z,6.81
2023-04-16T00:42:15.245Z,6.81
2023-04-16T00:44:42.285Z,6.83
2023-04-16T00:47:09.646Z,6.89
2023-04-16T00:49:37.163Z,6.91
2023-04-16T00:52:04.699Z,6.98
2023-04-16T00:54:32.755Z,7.02
2023-04-16T00:57:00.445Z,7.04
2023-04-16T00:59:29.320Z,7.01
2023-04-16T01:01:56.433Z,7.02
2023-04-16T01:04:24.140Z,7.05
2023-04-16T01:06:51.719Z,7.12
2023-04-16T01:09:18.954Z,7.13
2023-04-16T01:11:46.202Z,7.11
2023-04-16T01:14:13.251Z,7.13
2023-04-16T01:16:40.100Z,7.18
2023-04-16T01:19:07.405Z,7.25
2023-04-16T01:21:34.740Z,7.32
2023-04-16T01:24:05.459Z,7.34
2023-04-16T01:26:32.699Z,7.37
2023-04-16T01:29:00.113Z,7.44
2023-04-16T01:31:27.121Z,7.47
2023-04-16T01:33:54.013Z,7.51
2023-04-16T01:36:20.963Z,7.54
2023-04-16T01:38:48.136Z,7.54
2023-04-16T01:41:15.248Z,7.57
2023-04-16T01:43:42.927Z,7.53
2023-04-16T01:46:15.727Z,7.52
2023-04-16T01:48:43.292Z,7.49
2023-04-16T01:51:10.600Z,7.51
2023-04-16T01:53:37.898Z,7.53
2023-04-16T01:56:05.921Z,7.55
2023-04-16T01:58:33.621Z,7.58
2023-04-16T02:01:00.990Z,7.57
2023-04-16T02:03:28.470Z,7.58
2023-04-16T02:05:55.537Z,7.59
2023-04-16T02:08:22.894Z,7.60
2023-04-16T02:10:51.305Z,7.62
2023-04-16T02:13:18.312Z,7.57
2023-04-16T02:15:47.905Z,7.50
2023-04-16T02:18:15.173Z,7.46
2023-04-16T02:20:47.123Z,7.45
2023-04-16T02:23:17.452Z,7.42
2023-04-16T02:25:46.892Z,7.37
2023-04-16T02:28:16.208Z,7.30
2023-04-16T02:30:58.062Z,7.27
2023-04-16T02:33:36.854Z,7.32
2023-04-16T02:36:04.002Z,7.33
2023-04-16T02:38:31.423Z,7.32
2023-04-16T02:40:59.737Z,7.33
2023-04-16T02:43:26.933Z,7.36
2023-04-16T02:45:54.012Z,7.38
2023-04-16T02:48:20.965Z,7.37
2023-04-16T02:50:47.976Z,7.31
2023-04-16T02:53:15.097Z,7.22
2023-04-16T02:55:42.210Z,7.16
2023-04-16T02:58:09.420Z,7.11
2023-04-16T03:00:36.395Z,7.04
2023-04-16T03:03:03.762Z,6.98
2023-04-16T03:05:30.615Z,6.93
2023-04-16T03:07:57.641Z,6.89
2023-04-16T03:10:25.424Z,6.87
2023-04-16T03:12:52.401Z,6.88
2023-04-16T03:15:19.417Z,6.89
2023-04-16T03:17:54.364Z,6.88
2023-04-16T03:20:25.525Z,6.86
2023-04-16T03:23:02.077Z,6.88
2023-04-16T03:25:35.918Z,6.92
2023-04-16T03:28:04.132Z,6.96
2023-04-16T03:30:31.866Z,7.02
2023-04-16T03:32:58.868Z,7.05
2023-04-16T03:35:26.294Z,7.06
2023-04-16T03:37:53.237Z,7.08
2023-04-16T03:40:20.481Z,7.08
2023-04-16T03:42:47.352Z,7.05
2023-04-16T03:45:15.580Z,7.08
2023-04-16T03:47:42.469Z,7.12
2023-04-16T03:50:10.284Z,7.11
2023-04-16T03:52:37.241Z,7.06
2023-04-16T03:55:04.676Z,7.07
2023-04-16T03:57:31.756Z,7.05
2023-04-16T03:59:58.769Z,7.08
2023-04-16T04:02:26.320Z,7.08
2023-04-16T04:04:53.623Z,7.04
2023-04-16T04:07:20.946Z,7.04
2023-04-16T04:09:47.871Z,7.09
2023-04-16T04:12:14.912Z,7.11
2023-04-16T04:14:42.060Z,7.12
2023-04-16T04:17:09.440Z,7.12
2023-04-16T04:19:38.826Z,7.11
2023-04-16T04:22:07.200Z,7.12
2023-04-16T04:24:34.162Z,7.13
2023-04-16T04:27:02.444Z,7.15
2023-04-16T04:29:29.681Z,7.15
2023-04-16T04:31:56.744Z,7.12
2023-04-16T04:34:23.749Z,7.10
2023-04-16T04:36:51.048Z,7.02
2023-04-16T04:39:18.161Z,6.97
2023-04-16T04:41:44.953Z,6.93
2023-04-16T04:44:11.932Z,6.96
2023-04-16T04:46:38.870Z,6.97
2023-04-16T04:49:06.152Z,7.02
2023-04-16T04:51:33.520Z,7.06
2023-04-16T04:54:00.725Z,7.06
2023-04-16T04:56:27.568Z,7.11
2023-04-16T04:58:55.240Z,7.14
2023-04-16T05:01:22.198Z,7.14
2023-04-16T05:03:49.107Z,7.14
2023-04-16T05:06:16.984Z,7.18
2023-04-16T05:08:43.938Z,7.24
2023-04-16T05:11:11.065Z,7.32
2023-04-16T05:13:37.907Z,7.41
2023-04-16T05:16:05.380Z,7.48
2023-04-16T05:18:33.860Z,7.55
2023-04-16T05:21:01.197Z,7.59
2023-04-16T05:23:28.342Z,7.72
2023-04-16T05:25:55.115Z,7.83
2023-04-16T05:28:22.039Z,7.93
2023-04-16T05:30:48.912Z,7.94
2023-04-16T05:33:16.134Z,7.94
2023-04-16T05:35:43.778Z,7.90
2023-04-16T05:38:11.906Z,7.94
2023-04-16T05:40:38.912Z,7.91
2023-04-16T05:43:05.880Z,7.96
2023-04-16T05:45:33.790Z,7.99
2023-04-16T05:48:01.283Z,8.04
2023-04-16T05:50:28.187Z,8.12
2023-04-16T05:52:55.441Z,8.15
2023-04-16T05:55:22.902Z,8.17
2023-04-16T05:57:50.085Z,8.25
2023-04-16T06:00:18.001Z,8.39
2023-04-16T06:02:45.945Z,8.52
2023-04-16T06:05:15.174Z,8.68
2023-04-16T06:07:42.666Z,8.75
2023-04-16T06:10:10.412Z,8.84
2023-04-16T06:12:38.078Z,8.97
2023-04-16T06:15:06.209Z,9.01
2023-04-16T06:17:33.319Z,9.05
2023-04-16T06:20:00.612Z,9.11
2023-04-16T06:22:27.670Z,9.19
2023-04-16T06:24:55.400Z,9.28
2023-04-16T06:27:22.388Z,9.41
2023-04-16T06:29:49.621Z,9.50
2023-04-16T06:32:18.457Z,9.67
2023-04-16T06:34:45.655Z,9.88
2023-04-16T06:37:13.129Z,10.09
2023-04-16T06:39:40.393Z,10.27
2023-04-16T06:42:07.846Z,10.44
2023-04-16T06:44:37.232Z,10.51
2023-04-16T06:47:04.326Z,10.59
2023-04-16T06:49:31.303Z,10.64
2023-04-16T06:51:58.272Z,10.75
2023-04-16T06:54:25.089Z,10.82
2023-04-16T06:56:51.946Z,10.87
2023-04-16T06:59:18.976Z,10.89
2023-04-16T07:01:45.864Z,11.05
2023-04-16T07:04:13.101Z,11.21
2023-04-16T07:06:40.420Z,11.24
2023-04-16T07:09:07.339Z,11.45
2023-04-16T07:11:34.830Z,11.66
2023-04-16T07:14:02.006Z,11.85
2023-04-16T07:16:28.960Z,12.01
2023-04-16T07:18:56.054Z,12.20
2023-04-16T07:21:23.229Z,12.30
2023-04-16T07:23:50.066Z,12.55
2023-04-16T07:26:16.907Z,12.86
2023-04-16T07:28:43.868Z,13.03
2023-04-16T07:31:11.184Z,13.15
2023-04-16T07:33:38.039Z,13.31
2023-04-16T07:36:05.515Z,13.39
2023-04-16T07:38:32.356Z,13.44
2023-04-16T07:40:59.191Z,13.55
2023-04-16T07:43:26.097Z,13.74
2023-04-16T07:45:53.052Z,13.88
2023-04-16T07:48:19.988Z,13.91
2023-04-16T07:50:47.029Z,14.03
2023-04-16T07:53:13.986Z,14.21
2023-04-16T07:55:41.327Z,14.41
2023-04-16T07:58:09.856Z,14.64
2023-04-16T08:00:36.860Z,14.93
2023-04-16T08:03:04.368Z,15.22
2023-04-16T08:05:31.789Z,15.49
2023-04-16T08:07:58.947Z,15.63
2023-04-16T08:10:26.179Z,15.65
2023-04-16T08:12:53.224Z,15.59
2023-04-16T08:15:20.453Z,15.49
2023-04-16T08:17:47.670Z,15.42
2023-04-16T08:20:17.043Z,15.34
2023-04-16T08:22:46.769Z,15.23
2023-04-16T08:25:14.782Z,15.31
2023-04-16T08:27:41.769Z,15.67
2023-04-16T08:30:08.764Z,15.96
2023-04-16T08:32:35.872Z,15.90
2023-04-16T08:35:03.166Z,15.90
2023-04-16T08:37:30.113Z,15.87
2023-04-16T08:39:57.128Z,15.85
2023-04-16T08:42:32.735Z,15.61
2023-04-16T08:45:14.283Z,15.10
2023-04-16T08:47:42.379Z,14.86
2023-04-16T08:50:12.933Z,14.79
2023-04-16T08:52:47.349Z,14.79
2023-04-16T08:55:15.225Z,14.83
2023-04-16T08:57:49.872Z,14.73
2023-04-16T09:00:17.363Z,14.66
2023-04-16T09:02:44.697Z,14.72
2023-04-16T09:05:17.380Z,14.99
2023-04-16T09:07:46.755Z,15.30
2023-04-16T09:10:15.923Z,15.79
2023-04-16T09:12:43.858Z,16.34
2023-04-16T09:15:12.506Z,17.12
2023-04-16T09:17:40.487Z,17.63
2023-04-16T09:20:11.109Z,18.00
2023-04-16T09:22:40.348Z,18.32
2023-04-16T09:25:08.675Z,18.95
2023-04-16T09:27:36.516Z,18.49
2023-04-16T09:30:22.496Z,18.48
2023-04-16T09:32:51.381Z,18.85
2023-04-16T09:35:21.951Z,19.02
2023-04-16T09:37:58.969Z,18.86
2023-04-16T09:40:27.767Z,18.72
2023-04-16T09:42:58.899Z,18.68
2023-04-16T09:45:25.934Z,18.36
2023-04-16T09:47:52.979Z,18.17
2023-04-16T09:50:20.833Z,17.89
2023-04-16T09:52:54.210Z,17.46
2023-04-16T09:55:27.600Z,17.21
2023-04-16T09:58:01.794Z,17.28
2023-04-16T10:00:31.754Z,17.36
2023-04-16T10:03:06.530Z,17.34
2023-04-16T10:05:33.775Z,17.31
2023-04-16T10:08:02.431Z,17.57
2023-04-16T10:10:29.956Z,18.17
2023-04-16T10:12:57.132Z,18.48
2023-04-16T10:15:24.591Z,18.84
2023-04-16T10:17:52.387Z,19.00
2023-04-16T10:20:20.095Z,19.35
2023-04-16T10:22:47.369Z,19.83
2023-04-16T10:25:15.132Z,20.03
2023-04-16T10:27:42.097Z,20.57
2023-04-16T10:30:11.298Z,21.11
2023-04-16T10:32:38.798Z,21.28
2023-04-16T10:35:07.140Z,21.54
2023-04-16T10:37:34.335Z,22.06
2023-04-16T10:40:01.563Z,22.24
2023-04-16T10:42:28.967Z,22.25
2023-04-16T10:45:00.686Z,22.45
2023-04-16T10:47:29.665Z,22.88
2023-04-16T10:49:58.550Z,23.37
2023-04-16T10:52:29.616Z,23.59
2023-04-16T10:55:00.621Z,24.04
2023-04-16T10:57:30.427Z,24.31
2023-04-16T10:59:57.470Z,24.73
2023-04-16T11:02:29.241Z,24.85
2023-04-16T11:04:58.225Z,25.26
2023-04-16T11:07:36.203Z,25.29
2023-04-16T11:10:13.069Z,25.30
2023-04-16T11:12:46.678Z,25.09
2023-04-16T11:15:16.526Z,25.07
2023-04-16T11:17:46.382Z,25.68
2023-04-16T11:20:20.416Z,26.06
2023-04-16T11:22:53.467Z,26.20
2023-04-16T11:25:31.852Z,26.48
2023-04-16T11:28:01.719Z,26.60
2023-04-16T11:30:36.919Z,25.90
2023-04-16T11:33:09.982Z,24.64
2023-04-16T11:35:39.948Z,23.52
2023-04-16T11:38:07.918Z,22.68
2023-04-16T11:40:36.742Z,22.10
2023-04-16T11:43:14.211Z,21.66
2023-04-16T11:46:07.430Z,21.86
2023-04-16T11:48:51.452Z,22.45
2023-04-16T11:51:19.479Z,23.17
2023-04-16T11:53:54.283Z,23.32
2023-04-16T11:56:32.572Z,23.69
2023-04-16T11:59:12.042Z,24.12
2023-04-16T12:01:40.838Z,24.73
2023-04-16T12:04:09.233Z,25.02
2023-04-16T12:06:36.806Z,25.50
2023-04-16T12:09:25.719Z,25.54
2023-04-16T12:11:52.705Z,24.90
2023-04-16T12:14:20.736Z,24.43
2023-04-16T12:16:48.316Z,24.39
2023-04-16T12:19:15.935Z,24.31
2023-04-16T12:21:45.610Z,24.58
2023-04-16T12:24:15.211Z,24.30
2023-04-16T12:26:47.365Z,24.14
2023-04-16T12:29:16.137Z,23.53
2023-04-16T12:31:43.165Z,22.94
2023-04-16T12:34:10.732Z,23.43
2023-04-16T12:36:39.076Z,23.85
2023-04-16T12:39:06.406Z,24.58
2023-04-16T12:41:37.107Z,24.88
2023-04-16T12:44:18.184Z,25.41
2023-04-16T12:46:45.688Z,25.47
2023-04-16T12:49:12.723Z,25.80
2023-04-16T12:51:39.822Z,25.86
2023-04-16T12:54:08.411Z,25.46
2023-04-16T12:56:36.668Z,24.95
2023-04-16T12:59:04.111Z,25.22
2023-04-16T13:01:31.274Z,25.66
2023-04-16T13:03:58.717Z,25.92
2023-04-16T13:06:26.583Z,25.35
2023-04-16T13:08:53.765Z,25.55
2023-04-16T13:11:21.128Z,25.36
2023-04-16T13:13:48.231Z,25.01
2023-04-16T13:16:15.640Z,24.56
2023-04-16T13:18:43.210Z,23.78
2023-04-16T13:21:11.693Z,23.36
2023-04-16T13:23:38.740Z,23.18
2023-04-16T13:26:05.810Z,23.18
2023-04-16T13:28:32.766Z,23.51
2023-04-16T13:31:00.721Z,23.81
2023-04-16T13:33:29.050Z,24.20
2023-04-16T13:36:12.344Z,24.44
2023-04-16T13:38:39.882Z,24.31
2023-04-16T13:41:18.706Z,24.50
2023-04-16T13:43:59.283Z,24.52
2023-04-16T13:46:27.829Z,24.29
2023-04-16T13:48:56.094Z,23.96
2023-04-16T13:51:23.289Z,23.75
2023-04-16T13:53:50.741Z,23.66
2023-04-16T13:56:17.662Z,23.57
2023-04-16T13:58:44.653Z,23.42
2023-04-16T14:01:12.375Z,23.16
2023-04-16T14:03:40.949Z,22.69
2023-04-16T14:06:08.421Z,22.34
2023-04-16T14:08:35.374Z,22.17
2023-04-16T14:11:02.407Z,22.06
2023-04-16T14:13:29.485Z,21.90
2023-04-16T14:15:57.414Z,21.58
2023-04-16T14:18:24.449Z,21.27
2023-04-16T14:20:51.613Z,21.06
2023-04-16T14:23:18.826Z,21.00
2023-04-16T14:25:45.792Z,20.82
2023-04-16T14:28:14.311Z,20.62
2023-04-16T14:30:42.932Z,20.23
2023-04-16T14:33:09.999Z,19.74
2023-04-16T14:35:37.045Z,19.62
2023-04-16T14:38:03.885Z,19.55
2023-04-16T14:40:30.824Z,19.46
2023-04-16T14:42:57.976Z,19.38
2023-04-16T14:45:29.628Z,19.22
2023-04-16T14:47:57.610Z,18.70
2023-04-16T14:50:24.530Z,18.38
2023-04-16T14:52:51.982Z,18.35
2023-04-16T14:55:18.941Z,18.26
2023-04-16T14:57:45.883Z,18.25
2023-04-16T15:00:17.400Z,18.22
2023-04-16T15:02:45.598Z,18.14
2023-04-16T15:05:12.950Z,17.97
2023-04-16T15:07:40.786Z,17.83
2023-04-16T15:10:09.551Z,17.65
2023-04-16T15:12:38.820Z,17.56
2023-04-16T15:15:09.812Z,17.55
2023-04-16T15:17:37.328Z,17.59
2023-04-16T15:20:11.100Z,17.60
2023-04-16T15:22:38.760Z,17.55
2023-04-16T15:25:07.384Z,17.37
2023-04-16T15:27:34.304Z,17.03
2023-04-16T15:30:01.373Z,16.91
2023-04-16T15:32:28.796Z,16.80
2023-04-16T15:34:56.046Z,16.60
2023-04-16T15:37:23.057Z,16.55
2023-04-16T15:39:50.502Z,16.56
2023-04-16T15:42:17.687Z,16.44
2023-04-16T15:44:44.975Z,16.34
2023-04-16T15:47:12.522Z,16.20
2023-04-16T15:49:40.264Z,16.13
2023-04-16T15:52:07.964Z,16.09
2023-04-16T15:54:35.539Z,16.03
2023-04-16T15:57:03.045Z,16.01
2023-04-16T15:59:30.289Z,16.05
2023-04-16T16:01:57.928Z,16.10
2023-04-16T16:04:26.765Z,16.09
2023-04-16T16:06:54.654Z,15.99
2023-04-16T16:09:26.803Z,15.91
2023-04-16T16:11:54.998Z,15.95
2023-04-16T16:14:22.801Z,15.92
2023-04-16T16:16:50.138Z,15.79
2023-04-16T16:19:18.169Z,15.68
2023-04-16T16:21:45.262Z,15.61
2023-04-16T16:24:12.610Z,15.57
2023-04-16T16:26:39.661Z,15.54
2023-04-16T16:29:07.531Z,15.49
2023-04-16T16:31:34.915Z,15.53
2023-04-16T16:34:02.823Z,15.54
2023-04-16T16:36:30.246Z,15.49
2023-04-16T16:38:57.640Z,15.46
2023-04-16T16:41:24.590Z,15.42
2023-04-16T16:43:51.773Z,15.30
2023-04-16T16:46:18.819Z,15.25
2023-04-16T16:48:46.124Z,15.20
2023-04-16T16:51:13.445Z,15.13
2023-04-16T16:53:40.648Z,15.05
2023-04-16T16:56:07.887Z,15.03
2023-04-16T16:58:35.111Z,14.98
2023-04-16T17:01:02.250Z,14.95
2023-04-16T17:03:29.488Z,14.81
2023-04-16T17:05:56.780Z,14.73
2023-04-16T17:08:24.135Z,14.73
2023-04-16T17:10:52.033Z,14.73
2023-04-16T17:13:20.780Z,14.71
2023-04-16T17:15:48.132Z,14.63
2023-04-16T17:18:15.659Z,14.51
2023-04-16T17:20:42.968Z,14.40
2023-04-16T17:23:10.107Z,14.31
2023-04-16T17:25:36.933Z,14.27
2023-04-16T17:28:04.281Z,14.26
2023-04-16T17:30:32.280Z,14.23
2023-04-16T17:32:59.345Z,14.19
2023-04-16T17:35:26.735Z,14.13
2023-04-16T17:37:53.607Z,14.10
2023-04-16T17:40:20.846Z,13.99
2023-04-16T17:42:49.601Z,13.87
2023-04-16T17:45:16.699Z,13.83
2023-04-16T17:47:47.356Z,13.77
2023-04-16T17:50:14.628Z,13.71
2023-04-16T17:52:41.497Z,13.66
2023-04-16T17:55:09.276Z,13.62
2023-04-16T17:57:37.158Z,13.52
2023-04-16T18:00:11.880Z,13.39
2023-04-16T18:02:41.237Z,13.33
2023-04-16T18:05:09.370Z,13.31
2023-04-16T18:07:36.972Z,13.26
2023-04-16T18:10:04.321Z,13.21
2023-04-16T18:12:31.373Z,13.14
2023-04-16T18:14:58.428Z,13.05
2023-04-16T18:17:25.412Z,12.94
2023-04-16T18:19:52.439Z,12.86
2023-04-16T18:22:19.597Z,12.81
2023-04-16T18:24:46.863Z,12.74
2023-04-16T18:27:14.080Z,12.67
2023-04-16T18:29:43.760Z,12.60
2023-04-16T18:32:12.305Z,12.52
2023-04-16T18:34:39.926Z,12.45
2023-04-16T18:37:07.351Z,12.39
2023-04-16T18:39:34.203Z,12.32
2023-04-16T18:42:01.838Z,12.26
2023-04-16T18:44:28.713Z,12.21
2023-04-16T18:46:56.026Z,12.17
2023-04-16T18:49:22.981Z,12.16
2023-04-16T18:51:49.956Z,12.16
2023-04-16T18:54:17.514Z,12.16
2023-04-16T18:56:45.402Z,12.15
2023-04-16T18:59:13.046Z,12.15
2023-04-16T19:01:40.154Z,12.14
2023-04-16T19:04:07.491Z,12.10
2023-04-16T19:06:35.113Z,12.07
2023-04-16T19:09:02.402Z,11.98
2023-04-16T19:11:29.477Z,11.94
2023-04-16T19:13:57.760Z,11.92
2023-04-16T19:16:25.333Z,11.89
2023-04-16T19:18:52.471Z,11.87
2023-04-16T19:21:19.390Z,11.80
2023-04-16T19:23:46.627Z,11.69
2023-04-16T19:26:13.784Z,11.61
2023-04-16T19:28:42.882Z,11.58
2023-04-16T19:31:10.193Z,11.57
2023-04-16T19:33:37.694Z,11.53
2023-04-16T19:36:05.807Z,11.43
2023-04-16T19:38:33.081Z,11.40
2023-04-16T19:41:00.538Z,11.40
2023-04-16T19:43:30.724Z,11.43
2023-04-16T19:45:58.708Z,11.43
2023-04-16T19:48:26.429Z,11.45
2023-04-16T19:50:53.728Z,11.48
2023-04-16T19:53:21.974Z,11.54
2023-04-16T19:55:49.335Z,11.55
2023-04-16T19:58:16.754Z,11.56
2023-04-16T20:00:44.555Z,11.45
2023-04-16T20:03:12.172Z,11.35
2023-04-16T20:05:39.522Z,11.33
2023-04-16T20:08:07.030Z,11.33
2023-04-16T20:10:34.366Z,11.33
2023-04-16T20:13:01.364Z,11.33
2023-04-16T20:15:28.571Z,11.31
2023-04-16T20:17:56.703Z,11.25
2023-04-16T20:20:23.964Z,11.21
2023-04-16T20:22:51.293Z,11.14
2023-04-16T20:25:19.624Z,11.08
2023-04-16T20:27:46.924Z,11.00
2023-04-16T20:30:14.576Z,10.97
2023-04-16T20:32:41.883Z,10.94
2023-04-16T20:35:11.742Z,10.93
2023-04-16T20:37:39.197Z,10.95
2023-04-16T20:40:09.804Z,10.93
2023-04-16T20:42:36.699Z,10.87
2023-04-16T20:45:03.852Z,10.86
2023-04-16T20:47:30.970Z,10.85
2023-04-16T20:49:58.845Z,10.81
2023-04-16T20:52:25.769Z,10.77
2023-04-16T20:54:52.709Z,10.71
2023-04-16T20:57:19.757Z,10.59
2023-04-16T20:59:47.153Z,10.47
2023-04-16T21:02:15.028Z,10.39
2023-04-16T21:04:42.326Z,10.34
2023-04-16T21:07:09.271Z,10.24
2023-04-16T21:09:36.107Z,10.22
2023-04-16T21:12:02.947Z,10.16
2023-04-16T21:14:29.804Z,10.10
2023-04-16T21:16:56.628Z,10.06
2023-04-16T21:19:23.670Z,9.98
2023-04-16T21:21:51.379Z,9.95
2023-04-16T21:24:19.501Z,9.94
2023-04-16T21:26:47.578Z,9.90
2023-04-16T21:29:15.112Z,9.87
2023-04-16T21:31:43.102Z,9.79
2023-04-16T21:34:10.563Z,9.71
2023-04-16T21:36:37.555Z,9.60
2023-04-16T21:39:04.778Z,9.50
2023-04-16T21:41:31.823Z,9.38
2023-04-16T21:43:58.653Z,9.29
2023-04-16T21:46:26.964Z,9.26
2023-04-16T21:48:54.175Z,9.21
2023-04-16T21:51:29.587Z,9.16
2023-04-16T21:53:57.779Z,9.13
2023-04-16T21:56:26.577Z,9.14
2023-04-16T21:58:53.616Z,9.14
2023-04-16T22:01:20.918Z,9.14
2023-04-16T22:03:50.983Z,9.14
2023-04-16T22:06:18.531Z,9.13
2023-04-16T22:08:45.703Z,9.11
2023-04-16T22:11:12.931Z,9.06
2023-04-16T22:13:42.839Z,9.02
2023-04-16T22:16:11.750Z,9.00
2023-04-16T22:18:39.079Z,8.94
2023-04-16T22:21:06.743Z,8.85
2023-04-16T22:23:33.821Z,8.72
2023-04-16T22:26:03.126Z,8.56
2023-04-16T22:28:30.238Z,8.47
2023-04-16T22:30:57.707Z,8.42
2023-04-16T22:33:24.774Z,8.35
2023-04-16T22:35:51.786Z,8.32
2023-04-16T22:38:18.840Z,8.30
2023-04-16T22:40:48.686Z,8.28
2023-04-16T22:43:18.103Z,8.29
2023-04-16T22:45:46.626Z,8.26
2023-04-16T22:48:13.645Z,8.23
2023-04-16T22:50:41.722Z,8.17
2023-04-16T22:53:08.991Z,8.10
2023-04-16T22:55:36.031Z,8.02
2023-04-16T22:58:03.063Z,7.95
2023-04-16T23:00:30.045Z,7.92
2023-04-16T23:02:57.019Z,7.86
2023-04-16T23:05:24.442Z,7.85
2023-04-16T23:07:51.564Z,7.81
2023-04-16T23:10:18.400Z,7.80
2023-04-16T23:12:45.587Z,7.80
2023-04-16T23:15:12.651Z,7.81
2023-04-16T23:17:40.189Z,7.80
2023-04-16T23:20:10.287Z,7.79
2023-04-16T23:22:37.308Z,7.80
2023-04-16T23:25:04.757Z,7.82
2023-04-16T23:27:32.827Z,7.80
2023-04-16T23:29:59.905Z,7.77
2023-04-16T23:32:27.992Z,7.76
2023-04-16T23:34:54.985Z,7.70
2023-04-16T23:37:21.826Z,7.61
2023-04-16T23:39:48.705Z,7.57
2023-04-16T23:42:15.750Z,7.49
2023-04-16T23:44:42.652Z,7.40
2023-04-16T23:47:10.116Z,7.34
2023-04-16T23:49:37.605Z,7.29
2023-04-16T23:52:05.240Z,7.26
2023-04-16T23:54:32.064Z,7.24
2023-04-16T23:56:59.036Z,7.22
2023-04-16T23:59:26.172Z,7.22
